Cle Elum, WA (98922)

9:35 AM PST on January 30, 2015 (GMT -0800)
Cle Elum-Roslyn High School | Change Station
CLOSE
Current Station
Personal Weather Station
Location: Cle Elum, WA
Elevation: 2107 ft
Nearby Weather Stations

Elev 2107 ft 47.20 °N, 120.97 °W | Updated 12 minutes ago

Overcast
Overcast
30.6 °F
Feels Like 31 °F
N
0.0
Wind Variable Wind from ENE

Today
High -- | Low -- °F
--% Chance of Precip.
Yesterday
High -- | Low -- °F
Precip. -- in
7:31 AM 5:02 PM
Waxing Gibbous, 84% visible
Pressure 30.39 in
Visibility 4.0 miles
Clouds Scattered Clouds 400 ft
Overcast 1100 ft
Windchill 31 °F
Dew Point 28 °F
Humidity 91%
Rainfall 0.00 in
Snow Depth Not available.
UV 0.4 out of 12
Pollen 3.60 out of 12
Air Quality Not available.
Flu Activity Not available.
SPECI KELN 301725Z AUTO 30004KT 4SM BR SCT004 OVC011 02/00 A3039 RMK AO2 T00170000

More Conditions Fewer Conditions

Pressure 30.39 in
Visibility 4.0 miles
Clouds Scattered Clouds 400 ft
Overcast 1100 ft
Windchill 31 °F
Dew Point 28 °F
Humidity 91%
Rainfall 0.00 in
Snow Depth Not available.
UV 0.4 out of 12
Pollen 3.60 out of 12
Air Quality Not available.
Flu Activity Not available.
SPECI KELN 301725Z AUTO 30004KT 4SM BR SCT004 OVC011 02/00 A3039 RMK AO2 T00170000

More Conditions Fewer Conditions

10-Day Weather Forecast

Almanac

Astronomy

Jan. 30, 2015 Rise Set
Actual Time
Civil Twilight
Nautical Twilight
Astronomical Twilight
Moon
Length of Visible Light
Length of Day
Tomorrow will be .
, % of the Moon is Illuminated

Today's Extremes

State Highs State Lows

Community

WunderPhotos

Upload Photos

1,791,826 photos uploaded!

WunderBlogs® & News

Nearby

Air Quality

  Air Quality AQ Index Pollutant
Not available.

Snow Depth

Station Depth Elevation

Earthquake Activity

City Distance Mag. Time & Date
Minimum magnitude displayed is 2.5.

Coastal Water Temperatures

Place Temperature

Nearby Weather Stations